Frisange, Luxembourg
Current Conditions -  °F | °C
As of 3:50 PM on Wednesday 22 Oct 2014 (Local Time) from ELLX Reporting Station
Rain Showers Rain Showers  
Wind Chill: 41°   Ceiling: Unl
Heat Index: 46°   Visibility: 6mi
Dew Point: 41°   Wind: 13mph
Humidity: 81%   Direction: 280°W
Pressure: 30.12"   Gusts: NA
Location:  49.52°N, 6.19°E
Report Text: ELLX 221350Z 28011KT 250V310 9999 -SHRA FEW010 SCT018 08/05 Q1020 TEMPO 29015G30KT
Loading
Personal Weather Stations






























Interactive Weather Map
Tropical Storm Tracking
New forecast layout! Learn more

10-Day Weather Forecast

Advertisements
Track Severe Weather on mobile